sensor_id;sensor_type;location;lat;lon;timestamp;P1;durP1;ratioP1;P2;durP2;ratioP2
27833;SDS011;15200;50.570;7.244;2022-11-27T00:01:14;7.77;;;3.40;;
27833;SDS011;15200;50.570;7.244;2022-11-27T00:03:42;9.30;;;3.60;;
27833;SDS011;15200;50.570;7.244;2022-11-27T00:06:13;7.80;;;3.43;;
27833;SDS011;15200;50.570;7.244;2022-11-27T00:08:41;7.73;;;3.70;;
27833;SDS011;15200;50.570;7.244;2022-11-27T00:11:10;11.33;;;3.10;;
27833;SDS011;15200;50.570;7.244;2022-11-27T00:13:38;5.97;;;2.83;;
27833;SDS011;15200;50.570;7.244;2022-11-27T00:16:06;7.40;;;3.30;;
27833;SDS011;15200;50.570;7.244;2022-11-27T00:18:33;6.87;;;2.83;;
27833;SDS011;15200;50.570;7.244;2022-11-27T00:21:06;8.47;;;2.70;;
27833;SDS011;15200;50.570;7.244;2022-11-27T00:23:30;6.73;;;2.30;;
27833;SDS011;15200;50.570;7.244;2022-11-27T00:25:58;5.50;;;2.30;;
27833;SDS011;15200;50.570;7.244;2022-11-27T00:28:25;6.67;;;2.60;;
27833;SDS011;15200;50.570;7.244;2022-11-27T00:30:52;6.83;;;2.27;;
27833;SDS011;15200;50.570;7.244;2022-11-27T00:33:21;5.03;;;2.40;;
27833;SDS011;15200;50.570;7.244;2022-11-27T00:35:48;6.00;;;2.40;;
27833;SDS011;15200;50.570;7.244;2022-11-27T00:38:16;5.83;;;2.97;;
27833;SDS011;15200;50.570;7.244;2022-11-27T00:40:43;6.63;;;2.73;;
27833;SDS011;15200;50.570;7.244;2022-11-27T00:43:10;5.00;;;2.47;;
27833;SDS011;15200;50.570;7.244;2022-11-27T00:45:38;6.40;;;2.50;;
27833;SDS011;15200;50.570;7.244;2022-11-27T00:48:05;4.42;;;2.30;;
27833;SDS011;15200;50.570;7.244;2022-11-27T00:50:32;6.70;;;2.13;;
27833;SDS011;15200;50.570;7.244;2022-11-27T00:53:00;4.90;;;2.43;;
27833;SDS011;15200;50.570;7.244;2022-11-27T00:55:27;8.13;;;2.97;;
27833;SDS011;15200;50.570;7.244;2022-11-27T00:57:54;8.00;;;3.17;;
27833;SDS011;15200;50.570;7.244;2022-11-27T01:00:21;10.53;;;2.90;;
27833;SDS011;15200;50.570;7.244;2022-11-27T01:02:49;5.73;;;2.97;;
27833;SDS011;15200;50.570;7.244;2022-11-27T01:05:16;6.70;;;3.20;;
27833;SDS011;15200;50.570;7.244;2022-11-27T01:07:43;8.83;;;3.50;;
27833;SDS011;15200;50.570;7.244;2022-11-27T01:10:11;10.83;;;4.33;;
27833;SDS011;15200;50.570;7.244;2022-11-27T01:12:38;9.50;;;4.17;;
27833;SDS011;15200;50.570;7.244;2022-11-27T01:15:05;7.00;;;3.30;;
27833;SDS011;15200;50.570;7.244;2022-11-27T01:17:33;6.93;;;3.93;;
27833;SDS011;15200;50.570;7.244;2022-11-27T01:20:00;8.50;;;3.83;;
27833;SDS011;15200;50.570;7.244;2022-11-27T01:22:27;9.23;;;3.42;;
27833;SDS011;15200;50.570;7.244;2022-11-27T01:24:55;10.55;;;4.62;;
27833;SDS011;15200;50.570;7.244;2022-11-27T01:27:22;7.70;;;3.57;;
27833;SDS011;15200;50.570;7.244;2022-11-27T01:29:49;7.47;;;3.30;;
27833;SDS011;15200;50.570;7.244;2022-11-27T01:32:17;15.63;;;4.10;;
27833;SDS011;15200;50.570;7.244;2022-11-27T01:34:44;7.90;;;4.33;;
27833;SDS011;15200;50.570;7.244;2022-11-27T01:37:11;10.43;;;4.57;;
27833;SDS011;15200;50.570;7.244;2022-11-27T01:39:39;9.50;;;5.07;;
27833;SDS011;15200;50.570;7.244;2022-11-27T01:42:08;9.90;;;5.13;;
27833;SDS011;15200;50.570;7.244;2022-11-27T01:47:28;9.53;;;5.47;;
27833;SDS011;15200;50.570;7.244;2022-11-27T01:49:52;9.43;;;5.70;;
27833;SDS011;15200;50.570;7.244;2022-11-27T01:52:23;12.13;;;6.57;;
27833;SDS011;15200;50.570;7.244;2022-11-27T01:54:58;9.43;;;5.03;;
27833;SDS011;15200;50.570;7.244;2022-11-27T01:57:24;15.30;;;5.97;;
27833;SDS011;15200;50.570;7.244;2022-11-27T01:59:50;9.63;;;5.43;;
27833;SDS011;15200;50.570;7.244;2022-11-27T02:02:18;13.83;;;6.30;;
27833;SDS011;15200;50.570;7.244;2022-11-27T02:04:45;15.27;;;5.77;;
27833;SDS011;15200;50.570;7.244;2022-11-27T02:07:13;11.30;;;5.70;;
27833;SDS011;15200;50.570;7.244;2022-11-27T02:09:40;18.03;;;6.70;;
27833;SDS011;15200;50.570;7.244;2022-11-27T02:12:19;14.00;;;6.23;;
27833;SDS011;15200;50.570;7.244;2022-11-27T02:17:20;10.63;;;5.17;;
27833;SDS011;15200;50.570;7.244;2022-11-27T02:19:54;12.70;;;5.73;;
27833;SDS011;15200;50.570;7.244;2022-11-27T02:22:23;17.47;;;6.63;;
27833;SDS011;15200;50.570;7.244;2022-11-27T02:24:49;11.63;;;6.20;;
27833;SDS011;15200;50.570;7.244;2022-11-27T02:30:06;24.93;;;7.93;;
27833;SDS011;15200;50.570;7.244;2022-11-27T02:32:35;16.20;;;7.63;;
27833;SDS011;15200;50.570;7.244;2022-11-27T02:35:08;15.10;;;6.90;;
27833;SDS011;15200;50.570;7.244;2022-11-27T02:37:50;12.73;;;7.20;;
27833;SDS011;15200;50.570;7.244;2022-11-27T02:40:22;12.50;;;6.77;;
27833;SDS011;15200;50.570;7.244;2022-11-27T02:42:54;14.50;;;6.57;;
27833;SDS011;15200;50.570;7.244;2022-11-27T02:45:23;16.80;;;7.60;;
27833;SDS011;15200;50.570;7.244;2022-11-27T02:47:50;12.87;;;7.00;;
27833;SDS011;15200;50.570;7.244;2022-11-27T02:50:23;16.70;;;6.60;;
27833;SDS011;15200;50.570;7.244;2022-11-27T02:52:46;11.70;;;6.17;;
27833;SDS011;15200;50.570;7.244;2022-11-27T02:55:17;13.57;;;6.67;;
27833;SDS011;15200;50.570;7.244;2022-11-27T02:58:04;15.13;;;7.73;;
27833;SDS011;15200;50.570;7.244;2022-11-27T03:00:32;13.07;;;7.10;;
27833;SDS011;15200;50.570;7.244;2022-11-27T03:03:03;15.57;;;7.07;;
27833;SDS011;15200;50.570;7.244;2022-11-27T03:05:32;17.10;;;8.33;;
27833;SDS011;15200;50.570;7.244;2022-11-27T03:07:59;13.77;;;7.23;;
27833;SDS011;15200;50.570;7.244;2022-11-27T03:12:59;14.47;;;6.60;;
27833;SDS011;15200;50.570;7.244;2022-11-27T03:15:27;12.50;;;6.40;;
27833;SDS011;15200;50.570;7.244;2022-11-27T03:18:01;15.63;;;7.03;;
27833;SDS011;15200;50.570;7.244;2022-11-27T03:20:47;12.00;;;6.67;;
27833;SDS011;15200;50.570;7.244;2022-11-27T03:23:15;14.40;;;6.90;;
27833;SDS011;15200;50.570;7.244;2022-11-27T03:25:43;15.07;;;7.50;;
27833;SDS011;15200;50.570;7.244;2022-11-27T03:28:10;11.00;;;6.23;;
27833;SDS011;15200;50.570;7.244;2022-11-27T03:30:39;13.07;;;6.90;;
27833;SDS011;15200;50.570;7.244;2022-11-27T03:33:07;16.47;;;6.20;;
27833;SDS011;15200;50.570;7.244;2022-11-27T03:35:40;16.50;;;6.90;;
27833;SDS011;15200;50.570;7.244;2022-11-27T03:38:07;16.33;;;6.93;;
27833;SDS011;15200;50.570;7.244;2022-11-27T03:40:47;17.67;;;7.63;;
27833;SDS011;15200;50.570;7.244;2022-11-27T03:43:08;17.83;;;7.07;;
27833;SDS011;15200;50.570;7.244;2022-11-27T03:45:34;12.77;;;7.10;;
27833;SDS011;15200;50.570;7.244;2022-11-27T03:50:41;12.07;;;6.00;;
27833;SDS011;15200;50.570;7.244;2022-11-27T03:53:17;12.03;;;6.07;;
27833;SDS011;15200;50.570;7.244;2022-11-27T03:55:52;14.10;;;6.50;;
27833;SDS011;15200;50.570;7.244;2022-11-27T04:01:18;14.17;;;7.10;;
27833;SDS011;15200;50.570;7.244;2022-11-27T04:03:46;15.57;;;6.17;;
27833;SDS011;15200;50.570;7.244;2022-11-27T04:06:14;14.70;;;6.67;;
27833;SDS011;15200;50.570;7.244;2022-11-27T04:08:41;16.23;;;7.20;;
27833;SDS011;15200;50.570;7.244;2022-11-27T04:11:09;11.87;;;6.70;;
27833;SDS011;15200;50.570;7.244;2022-11-27T04:13:36;14.83;;;7.27;;
27833;SDS011;15200;50.570;7.244;2022-11-27T04:16:03;13.73;;;6.33;;
27833;SDS011;15200;50.570;7.244;2022-11-27T04:18:31;10.87;;;6.13;;
27833;SDS011;15200;50.570;7.244;2022-11-27T04:20:58;16.90;;;7.03;;
27833;SDS011;15200;50.570;7.244;2022-11-27T04:23:25;14.63;;;7.13;;
27833;SDS011;15200;50.570;7.244;2022-11-27T04:25:53;14.83;;;6.83;;
27833;SDS011;15200;50.570;7.244;2022-11-27T04:28:20;13.47;;;6.43;;
27833;SDS011;15200;50.570;7.244;2022-11-27T04:30:52;13.93;;;6.60;;
27833;SDS011;15200;50.570;7.244;2022-11-27T04:33:20;12.10;;;6.43;;
27833;SDS011;15200;50.570;7.244;2022-11-27T04:35:47;15.63;;;5.80;;
27833;SDS011;15200;50.570;7.244;2022-11-27T04:38:15;11.43;;;5.67;;
27833;SDS011;15200;50.570;7.244;2022-11-27T04:40:42;11.23;;;5.53;;
27833;SDS011;15200;50.570;7.244;2022-11-27T04:43:10;9.87;;;5.03;;
27833;SDS011;15200;50.570;7.244;2022-11-27T04:45:37;13.33;;;5.90;;
27833;SDS011;15200;50.570;7.244;2022-11-27T04:48:05;11.60;;;4.97;;
27833;SDS011;15200;50.570;7.244;2022-11-27T04:50:32;10.67;;;5.47;;
27833;SDS011;15200;50.570;7.244;2022-11-27T04:52:59;11.43;;;5.73;;
27833;SDS011;15200;50.570;7.244;2022-11-27T04:55:27;8.67;;;4.80;;
27833;SDS011;15200;50.570;7.244;2022-11-27T04:57:54;9.93;;;5.50;;
27833;SDS011;15200;50.570;7.244;2022-11-27T05:00:21;12.63;;;5.10;;
27833;SDS011;15200;50.570;7.244;2022-11-27T05:02:49;16.50;;;9.00;;
27833;SDS011;15200;50.570;7.244;2022-11-27T05:05:16;12.17;;;6.47;;
27833;SDS011;15200;50.570;7.244;2022-11-27T05:07:43;10.30;;;6.30;;
27833;SDS011;15200;50.570;7.244;2022-11-27T05:10:11;15.03;;;6.00;;
27833;SDS011;15200;50.570;7.244;2022-11-27T05:12:38;11.07;;;5.40;;
27833;SDS011;15200;50.570;7.244;2022-11-27T05:15:06;15.73;;;5.60;;
27833;SDS011;15200;50.570;7.244;2022-11-27T05:17:33;15.77;;;6.13;;
27833;SDS011;15200;50.570;7.244;2022-11-27T05:20:01;8.70;;;5.10;;
27833;SDS011;15200;50.570;7.244;2022-11-27T05:22:29;14.03;;;6.37;;
27833;SDS011;15200;50.570;7.244;2022-11-27T05:24:56;7.43;;;4.70;;
27833;SDS011;15200;50.570;7.244;2022-11-27T05:27:23;10.07;;;5.00;;
27833;SDS011;15200;50.570;7.244;2022-11-27T05:29:50;8.33;;;5.23;;
27833;SDS011;15200;50.570;7.244;2022-11-27T05:32:18;10.97;;;5.40;;
27833;SDS011;15200;50.570;7.244;2022-11-27T05:34:45;12.37;;;4.90;;
27833;SDS011;15200;50.570;7.244;2022-11-27T05:37:14;9.73;;;5.60;;
27833;SDS011;15200;50.570;7.244;2022-11-27T05:39:41;10.43;;;5.07;;
27833;SDS011;15200;50.570;7.244;2022-11-27T05:42:09;9.87;;;4.87;;
27833;SDS011;15200;50.570;7.244;2022-11-27T05:44:36;12.73;;;5.20;;
27833;SDS011;15200;50.570;7.244;2022-11-27T05:47:03;11.63;;;5.40;;
27833;SDS011;15200;50.570;7.244;2022-11-27T05:49:31;10.90;;;5.17;;
27833;SDS011;15200;50.570;7.244;2022-11-27T05:51:58;12.33;;;4.77;;
27833;SDS011;15200;50.570;7.244;2022-11-27T05:54:25;11.83;;;4.80;;
27833;SDS011;15200;50.570;7.244;2022-11-27T05:56:53;10.50;;;5.20;;
27833;SDS011;15200;50.570;7.244;2022-11-27T05:59:20;11.10;;;4.90;;
27833;SDS011;15200;50.570;7.244;2022-11-27T06:01:47;10.00;;;4.60;;
27833;SDS011;15200;50.570;7.244;2022-11-27T06:04:15;8.10;;;4.87;;
27833;SDS011;15200;50.570;7.244;2022-11-27T06:06:42;7.77;;;4.20;;
27833;SDS011;15200;50.570;7.244;2022-11-27T06:09:09;9.07;;;4.00;;
27833;SDS011;15200;50.570;7.244;2022-11-27T06:11:37;11.13;;;4.70;;
27833;SDS011;15200;50.570;7.244;2022-11-27T06:14:06;10.33;;;4.17;;
27833;SDS011;15200;50.570;7.244;2022-11-27T06:16:33;7.97;;;4.27;;
27833;SDS011;15200;50.570;7.244;2022-11-27T06:19:00;7.93;;;3.97;;
27833;SDS011;15200;50.570;7.244;2022-11-27T06:21:27;9.20;;;4.20;;
27833;SDS011;15200;50.570;7.244;2022-11-27T06:23:55;10.30;;;4.10;;
27833;SDS011;15200;50.570;7.244;2022-11-27T06:26:27;10.63;;;4.57;;
27833;SDS011;15200;50.570;7.244;2022-11-27T06:28:55;10.03;;;4.20;;
27833;SDS011;15200;50.570;7.244;2022-11-27T06:31:23;10.68;;;5.35;;
27833;SDS011;15200;50.570;7.244;2022-11-27T06:33:51;7.40;;;4.47;;
27833;SDS011;15200;50.570;7.244;2022-11-27T06:36:19;8.80;;;4.87;;
27833;SDS011;15200;50.570;7.244;2022-11-27T06:38:47;9.90;;;4.83;;
27833;SDS011;15200;50.570;7.244;2022-11-27T06:41:16;9.83;;;5.73;;
27833;SDS011;15200;50.570;7.244;2022-11-27T06:43:43;11.20;;;5.10;;
27833;SDS011;15200;50.570;7.244;2022-11-27T06:46:12;8.70;;;5.27;;
27833;SDS011;15200;50.570;7.244;2022-11-27T06:51:29;9.87;;;5.37;;
27833;SDS011;15200;50.570;7.244;2022-11-27T06:53:57;13.77;;;5.70;;
27833;SDS011;15200;50.570;7.244;2022-11-27T06:56:25;7.53;;;5.20;;
27833;SDS011;15200;50.570;7.244;2022-11-27T06:58:53;8.17;;;5.03;;
27833;SDS011;15200;50.570;7.244;2022-11-27T07:01:22;7.23;;;5.17;;
27833;SDS011;15200;50.570;7.244;2022-11-27T07:03:49;12.53;;;5.90;;
27833;SDS011;15200;50.570;7.244;2022-11-27T07:06:18;8.00;;;5.10;;
27833;SDS011;15200;50.570;7.244;2022-11-27T07:08:46;8.77;;;5.50;;
27833;SDS011;15200;50.570;7.244;2022-11-27T07:11:14;9.37;;;5.03;;
27833;SDS011;15200;50.570;7.244;2022-11-27T07:13:43;8.93;;;4.67;;
27833;SDS011;15200;50.570;7.244;2022-11-27T07:16:11;8.83;;;4.93;;
27833;SDS011;15200;50.570;7.244;2022-11-27T07:18:40;12.60;;;5.53;;
27833;SDS011;15200;50.570;7.244;2022-11-27T07:21:27;11.33;;;5.80;;
27833;SDS011;15200;50.570;7.244;2022-11-27T07:23:54;11.00;;;6.03;;
27833;SDS011;15200;50.570;7.244;2022-11-27T07:26:23;9.20;;;5.67;;
27833;SDS011;15200;50.570;7.244;2022-11-27T07:28:51;9.53;;;5.07;;
27833;SDS011;15200;50.570;7.244;2022-11-27T07:31:19;9.87;;;5.47;;
27833;SDS011;15200;50.570;7.244;2022-11-27T07:33:46;15.03;;;5.50;;
27833;SDS011;15200;50.570;7.244;2022-11-27T07:36:15;12.50;;;5.77;;
27833;SDS011;15200;50.570;7.244;2022-11-27T07:38:43;11.43;;;5.50;;
27833;SDS011;15200;50.570;7.244;2022-11-27T07:41:10;10.03;;;5.57;;
27833;SDS011;15200;50.570;7.244;2022-11-27T07:43:38;10.27;;;4.93;;
27833;SDS011;15200;50.570;7.244;2022-11-27T07:46:06;13.90;;;5.83;;
27833;SDS011;15200;50.570;7.244;2022-11-27T07:48:34;9.90;;;5.53;;
27833;SDS011;15200;50.570;7.244;2022-11-27T07:51:04;12.63;;;5.47;;
27833;SDS011;15200;50.570;7.244;2022-11-27T07:53:30;9.17;;;5.07;;
27833;SDS011;15200;50.570;7.244;2022-11-27T07:55:58;8.87;;;5.00;;
27833;SDS011;15200;50.570;7.244;2022-11-27T07:58:25;8.87;;;5.40;;
27833;SDS011;15200;50.570;7.244;2022-11-27T08:00:52;20.33;;;6.30;;
27833;SDS011;15200;50.570;7.244;2022-11-27T08:03:21;11.20;;;5.50;;
27833;SDS011;15200;50.570;7.244;2022-11-27T08:06:19;13.05;;;6.42;;
27833;SDS011;15200;50.570;7.244;2022-11-27T08:08:47;10.33;;;6.27;;
27833;SDS011;15200;50.570;7.244;2022-11-27T08:11:25;12.43;;;5.37;;
27833;SDS011;15200;50.570;7.244;2022-11-27T08:13:56;18.40;;;6.90;;
27833;SDS011;15200;50.570;7.244;2022-11-27T08:16:23;12.47;;;6.63;;
27833;SDS011;15200;50.570;7.244;2022-11-27T08:18:50;15.27;;;6.93;;
27833;SDS011;15200;50.570;7.244;2022-11-27T08:21:18;12.47;;;6.97;;
27833;SDS011;15200;50.570;7.244;2022-11-27T08:23:45;13.47;;;7.17;;
27833;SDS011;15200;50.570;7.244;2022-11-27T08:26:12;14.60;;;7.33;;
27833;SDS011;15200;50.570;7.244;2022-11-27T08:28:40;13.40;;;7.33;;
27833;SDS011;15200;50.570;7.244;2022-11-27T08:31:09;11.63;;;6.93;;
27833;SDS011;15200;50.570;7.244;2022-11-27T08:33:56;12.90;;;7.57;;
27833;SDS011;15200;50.570;7.244;2022-11-27T08:36:24;15.10;;;8.48;;
27833;SDS011;15200;50.570;7.244;2022-11-27T08:38:52;18.93;;;7.97;;
27833;SDS011;15200;50.570;7.244;2022-11-27T08:41:20;14.25;;;7.42;;
27833;SDS011;15200;50.570;7.244;2022-11-27T08:43:47;17.82;;;8.23;;
27833;SDS011;15200;50.570;7.244;2022-11-27T08:46:14;18.63;;;8.77;;
27833;SDS011;15200;50.570;7.244;2022-11-27T08:48:42;18.35;;;8.48;;
27833;SDS011;15200;50.570;7.244;2022-11-27T08:51:10;14.67;;;8.40;;
27833;SDS011;15200;50.570;7.244;2022-11-27T08:53:38;13.43;;;8.53;;
27833;SDS011;15200;50.570;7.244;2022-11-27T08:56:07;18.37;;;9.47;;
27833;SDS011;15200;50.570;7.244;2022-11-27T08:58:34;14.40;;;8.10;;
27833;SDS011;15200;50.570;7.244;2022-11-27T09:01:09;19.07;;;8.30;;
27833;SDS011;15200;50.570;7.244;2022-11-27T09:03:36;19.60;;;8.70;;
27833;SDS011;15200;50.570;7.244;2022-11-27T09:06:08;24.37;;;9.87;;
27833;SDS011;15200;50.570;7.244;2022-11-27T09:08:36;20.57;;;10.00;;
27833;SDS011;15200;50.570;7.244;2022-11-27T09:11:04;17.80;;;9.50;;
27833;SDS011;15200;50.570;7.244;2022-11-27T09:13:31;21.17;;;9.88;;
27833;SDS011;15200;50.570;7.244;2022-11-27T09:16:00;20.60;;;9.65;;
27833;SDS011;15200;50.570;7.244;2022-11-27T09:18:28;16.83;;;9.33;;
27833;SDS011;15200;50.570;7.244;2022-11-27T09:20:56;13.37;;;8.67;;
27833;SDS011;15200;50.570;7.244;2022-11-27T09:23:23;14.80;;;7.87;;
27833;SDS011;15200;50.570;7.244;2022-11-27T09:25:50;15.03;;;8.98;;
27833;SDS011;15200;50.570;7.244;2022-11-27T09:28:18;16.73;;;7.97;;
27833;SDS011;15200;50.570;7.244;2022-11-27T09:30:45;16.07;;;8.73;;
27833;SDS011;15200;50.570;7.244;2022-11-27T09:33:12;16.03;;;8.67;;
27833;SDS011;15200;50.570;7.244;2022-11-27T09:35:40;14.87;;;8.20;;
27833;SDS011;15200;50.570;7.244;2022-11-27T09:38:07;15.40;;;8.40;;
27833;SDS011;15200;50.570;7.244;2022-11-27T09:40:34;17.57;;;9.33;;
27833;SDS011;15200;50.570;7.244;2022-11-27T09:43:03;19.32;;;9.75;;
27833;SDS011;15200;50.570;7.244;2022-11-27T09:45:32;13.65;;;8.43;;
27833;SDS011;15200;50.570;7.244;2022-11-27T09:48:01;17.20;;;8.28;;
27833;SDS011;15200;50.570;7.244;2022-11-27T09:50:30;20.17;;;8.47;;
27833;SDS011;15200;50.570;7.244;2022-11-27T09:55:43;19.87;;;8.10;;
27833;SDS011;15200;50.570;7.244;2022-11-27T09:58:14;16.15;;;9.00;;
27833;SDS011;15200;50.570;7.244;2022-11-27T10:00:44;19.98;;;9.33;;
27833;SDS011;15200;50.570;7.244;2022-11-27T10:03:12;18.00;;;9.03;;
27833;SDS011;15200;50.570;7.244;2022-11-27T10:05:46;16.27;;;9.10;;
27833;SDS011;15200;50.570;7.244;2022-11-27T10:10:57;19.75;;;8.13;;
27833;SDS011;15200;50.570;7.244;2022-11-27T10:13:33;15.18;;;8.08;;
27833;SDS011;15200;50.570;7.244;2022-11-27T10:16:01;14.80;;;7.93;;
27833;SDS011;15200;50.570;7.244;2022-11-27T10:21:00;16.10;;;7.83;;
27833;SDS011;15200;50.570;7.244;2022-11-27T10:25:58;10.53;;;6.20;;
27833;SDS011;15200;50.570;7.244;2022-11-27T10:28:42;13.60;;;6.93;;
27833;SDS011;15200;50.570;7.244;2022-11-27T10:31:02;11.68;;;6.17;;
27833;SDS011;15200;50.570;7.244;2022-11-27T10:33:41;12.63;;;7.72;;
27833;SDS011;15200;50.570;7.244;2022-11-27T10:36:16;13.58;;;6.60;;
27833;SDS011;15200;50.570;7.244;2022-11-27T10:38:40;13.38;;;6.75;;
27833;SDS011;15200;50.570;7.244;2022-11-27T10:41:18;9.00;;;6.10;;
27833;SDS011;15200;50.570;7.244;2022-11-27T10:43:46;11.57;;;5.25;;
27833;SDS011;15200;50.570;7.244;2022-11-27T10:46:16;11.97;;;6.05;;
27833;SDS011;15200;50.570;7.244;2022-11-27T10:48:43;11.22;;;5.55;;
27833;SDS011;15200;50.570;7.244;2022-11-27T10:51:14;9.50;;;4.63;;
27833;SDS011;15200;50.570;7.244;2022-11-27T10:53:42;9.03;;;5.30;;
27833;SDS011;15200;50.570;7.244;2022-11-27T10:56:23;7.92;;;4.87;;
27833;SDS011;15200;50.570;7.244;2022-11-27T10:58:53;8.13;;;5.12;;
27833;SDS011;15200;50.570;7.244;2022-11-27T11:01:18;9.20;;;5.12;;
27833;SDS011;15200;50.570;7.244;2022-11-27T11:03:45;7.90;;;5.03;;
27833;SDS011;15200;50.570;7.244;2022-11-27T11:06:22;8.55;;;4.72;;
27833;SDS011;15200;50.570;7.244;2022-11-27T11:09:01;6.85;;;3.33;;
27833;SDS011;15200;50.570;7.244;2022-11-27T11:11:29;17.92;;;5.15;;
27833;SDS011;15200;50.570;7.244;2022-11-27T11:13:56;10.48;;;5.25;;
27833;SDS011;15200;50.570;7.244;2022-11-27T11:16:24;8.25;;;4.97;;
27833;SDS011;15200;50.570;7.244;2022-11-27T11:18:56;12.68;;;6.10;;
27833;SDS011;15200;50.570;7.244;2022-11-27T11:21:33;7.73;;;4.90;;
27833;SDS011;15200;50.570;7.244;2022-11-27T11:24:02;9.08;;;5.00;;
27833;SDS011;15200;50.570;7.244;2022-11-27T11:26:30;7.80;;;5.33;;
27833;SDS011;15200;50.570;7.244;2022-11-27T11:28:59;9.40;;;5.47;;
27833;SDS011;15200;50.570;7.244;2022-11-27T11:31:31;6.90;;;5.08;;
27833;SDS011;15200;50.570;7.244;2022-11-27T11:34:45;8.85;;;5.87;;
27833;SDS011;15200;50.570;7.244;2022-11-27T11:36:27;8.85;;;4.87;;
27833;SDS011;15200;50.570;7.244;2022-11-27T11:38:55;8.87;;;5.47;;
27833;SDS011;15200;50.570;7.244;2022-11-27T11:41:23;15.23;;;5.58;;
27833;SDS011;15200;50.570;7.244;2022-11-27T11:43:57;9.18;;;5.17;;
27833;SDS011;15200;50.570;7.244;2022-11-27T11:46:28;8.83;;;5.30;;
27833;SDS011;15200;50.570;7.244;2022-11-27T11:49:00;12.73;;;5.53;;
27833;SDS011;15200;50.570;7.244;2022-11-27T11:54:16;10.65;;;5.85;;
27833;SDS011;15200;50.570;7.244;2022-11-27T11:56:36;6.33;;;4.53;;
27833;SDS011;15200;50.570;7.244;2022-11-27T12:09:51;9.23;;;5.33;;
27833;SDS011;15200;50.570;7.244;2022-11-27T12:12:19;7.03;;;4.60;;
27833;SDS011;15200;50.570;7.244;2022-11-27T12:14:55;10.50;;;4.78;;
27833;SDS011;15200;50.570;7.244;2022-11-27T12:17:41;7.97;;;4.45;;
27833;SDS011;15200;50.570;7.244;2022-11-27T12:20:26;8.90;;;4.47;;
27833;SDS011;15200;50.570;7.244;2022-11-27T12:23:00;6.72;;;4.20;;
27833;SDS011;15200;50.570;7.244;2022-11-27T12:28:28;7.50;;;4.40;;
27833;SDS011;15200;50.570;7.244;2022-11-27T12:33:56;7.60;;;4.60;;
27833;SDS011;15200;50.570;7.244;2022-11-27T12:39:01;7.87;;;4.50;;
27833;SDS011;15200;50.570;7.244;2022-11-27T12:43:58;6.33;;;4.03;;
27833;SDS011;15200;50.570;7.244;2022-11-27T12:46:40;9.45;;;4.00;;
27833;SDS011;15200;50.570;7.244;2022-11-27T12:49:09;7.42;;;4.35;;
27833;SDS011;15200;50.570;7.244;2022-11-27T12:51:40;9.15;;;4.70;;
27833;SDS011;15200;50.570;7.244;2022-11-27T12:54:05;4.80;;;4.12;;
27833;SDS011;15200;50.570;7.244;2022-11-27T12:56:42;6.92;;;4.78;;
27833;SDS011;15200;50.570;7.244;2022-11-27T12:59:13;8.73;;;5.00;;
27833;SDS011;15200;50.570;7.244;2022-11-27T13:01:42;5.78;;;3.77;;
27833;SDS011;15200;50.570;7.244;2022-11-27T13:07:04;6.58;;;4.40;;
27833;SDS011;15200;50.570;7.244;2022-11-27T13:12:02;6.20;;;4.42;;
27833;SDS011;15200;50.570;7.244;2022-11-27T13:14:30;5.53;;;3.85;;
27833;SDS011;15200;50.570;7.244;2022-11-27T13:17:03;7.20;;;3.80;;
27833;SDS011;15200;50.570;7.244;2022-11-27T13:19:35;7.95;;;4.17;;
27833;SDS011;15200;50.570;7.244;2022-11-27T13:22:03;6.83;;;4.20;;
27833;SDS011;15200;50.570;7.244;2022-11-27T13:24:32;7.50;;;4.25;;
27833;SDS011;15200;50.570;7.244;2022-11-27T13:27:02;9.78;;;4.80;;
27833;SDS011;15200;50.570;7.244;2022-11-27T13:32:03;8.63;;;3.90;;
27833;SDS011;15200;50.570;7.244;2022-11-27T13:34:32;7.92;;;4.50;;
27833;SDS011;15200;50.570;7.244;2022-11-27T13:37:02;6.90;;;3.50;;
27833;SDS011;15200;50.570;7.244;2022-11-27T13:39:32;6.30;;;3.80;;
27833;SDS011;15200;50.570;7.244;2022-11-27T13:42:06;4.42;;;3.75;;
27833;SDS011;15200;50.570;7.244;2022-11-27T13:44:34;7.67;;;4.20;;
27833;SDS011;15200;50.570;7.244;2022-11-27T13:47:12;5.95;;;3.55;;
27833;SDS011;15200;50.570;7.244;2022-11-27T13:50:01;6.05;;;3.80;;
27833;SDS011;15200;50.570;7.244;2022-11-27T13:52:57;5.67;;;3.10;;
27833;SDS011;15200;50.570;7.244;2022-11-27T13:55:26;7.72;;;3.77;;
27833;SDS011;15200;50.570;7.244;2022-11-27T13:57:54;5.60;;;3.70;;
27833;SDS011;15200;50.570;7.244;2022-11-27T14:00:33;5.53;;;3.72;;
27833;SDS011;15200;50.570;7.244;2022-11-27T14:03:01;5.75;;;3.95;;
27833;SDS011;15200;50.570;7.244;2022-11-27T14:05:41;5.90;;;4.58;;
27833;SDS011;15200;50.570;7.244;2022-11-27T14:09:09;5.12;;;4.53;;
27833;SDS011;15200;50.570;7.244;2022-11-27T14:10:50;6.90;;;3.83;;
27833;SDS011;15200;50.570;7.244;2022-11-27T14:13:18;6.80;;;3.75;;
27833;SDS011;15200;50.570;7.244;2022-11-27T14:15:55;4.50;;;3.40;;
27833;SDS011;15200;50.570;7.244;2022-11-27T14:18:18;6.12;;;3.80;;
27833;SDS011;15200;50.570;7.244;2022-11-27T14:20:52;4.17;;;3.12;;
27833;SDS011;15200;50.570;7.244;2022-11-27T14:26:05;7.58;;;3.42;;
27833;SDS011;15200;50.570;7.244;2022-11-27T14:28:58;8.40;;;4.55;;
27833;SDS011;15200;50.570;7.244;2022-11-27T14:31:23;7.85;;;4.33;;
27833;SDS011;15200;50.570;7.244;2022-11-27T14:33:50;7.62;;;4.15;;
27833;SDS011;15200;50.570;7.244;2022-11-27T14:36:22;8.33;;;3.92;;
27833;SDS011;15200;50.570;7.244;2022-11-27T14:38:50;6.05;;;3.95;;
27833;SDS011;15200;50.570;7.244;2022-11-27T14:41:18;8.63;;;4.83;;
27833;SDS011;15200;50.570;7.244;2022-11-27T14:43:46;9.00;;;6.55;;
27833;SDS011;15200;50.570;7.244;2022-11-27T14:46:17;4.97;;;3.90;;
27833;SDS011;15200;50.570;7.244;2022-11-27T14:48:46;6.40;;;3.90;;
27833;SDS011;15200;50.570;7.244;2022-11-27T14:51:15;8.60;;;4.42;;
27833;SDS011;15200;50.570;7.244;2022-11-27T14:54:08;7.10;;;5.07;;
27833;SDS011;15200;50.570;7.244;2022-11-27T14:56:34;8.00;;;4.20;;
27833;SDS011;15200;50.570;7.244;2022-11-27T14:59:02;9.40;;;4.62;;
27833;SDS011;15200;50.570;7.244;2022-11-27T15:01:33;6.92;;;4.83;;
27833;SDS011;15200;50.570;7.244;2022-11-27T15:04:25;5.33;;;4.10;;
27833;SDS011;15200;50.570;7.244;2022-11-27T15:06:53;7.62;;;4.75;;
27833;SDS011;15200;50.570;7.244;2022-11-27T15:12:28;5.72;;;3.58;;
27833;SDS011;15200;50.570;7.244;2022-11-27T15:15:07;6.50;;;3.95;;
27833;SDS011;15200;50.570;7.244;2022-11-27T15:17:35;9.93;;;4.33;;
27833;SDS011;15200;50.570;7.244;2022-11-27T15:20:11;6.62;;;4.17;;
27833;SDS011;15200;50.570;7.244;2022-11-27T15:22:38;5.70;;;4.00;;
27833;SDS011;15200;50.570;7.244;2022-11-27T15:25:06;3.83;;;3.22;;
27833;SDS011;15200;50.570;7.244;2022-11-27T15:27:46;10.20;;;6.75;;
27833;SDS011;15200;50.570;7.244;2022-11-27T15:30:33;8.38;;;5.30;;
27833;SDS011;15200;50.570;7.244;2022-11-27T15:33:02;6.92;;;5.08;;
27833;SDS011;15200;50.570;7.244;2022-11-27T15:35:30;9.43;;;5.87;;
27833;SDS011;15200;50.570;7.244;2022-11-27T15:38:18;6.22;;;4.30;;
27833;SDS011;15200;50.570;7.244;2022-11-27T15:40:55;8.98;;;5.08;;
27833;SDS011;15200;50.570;7.244;2022-11-27T15:43:15;7.72;;;5.20;;
27833;SDS011;15200;50.570;7.244;2022-11-27T15:45:42;7.15;;;4.78;;
27833;SDS011;15200;50.570;7.244;2022-11-27T15:48:13;6.80;;;5.12;;
27833;SDS011;15200;50.570;7.244;2022-11-27T15:50:41;7.47;;;5.28;;
27833;SDS011;15200;50.570;7.244;2022-11-27T15:53:08;7.58;;;4.50;;
27833;SDS011;15200;50.570;7.244;2022-11-27T15:55:36;10.55;;;5.62;;
27833;SDS011;15200;50.570;7.244;2022-11-27T15:58:03;10.53;;;5.95;;
27833;SDS011;15200;50.570;7.244;2022-11-27T16:00:30;8.60;;;5.20;;
27833;SDS011;15200;50.570;7.244;2022-11-27T16:02:58;8.95;;;5.58;;